sensor_id;sensor_type;location;lat;lon;timestamp;P1;durP1;ratioP1;P2;durP2;ratioP2
61962;SDS011;47927;42.646;23.096;2023-02-13T00:00:29;17.45;;;9.32;;
61962;SDS011;47927;42.646;23.096;2023-02-13T00:02:55;20.63;;;10.80;;
61962;SDS011;47927;42.646;23.096;2023-02-13T00:05:21;18.55;;;9.88;;
61962;SDS011;47927;42.646;23.096;2023-02-13T00:07:46;17.50;;;9.57;;
61962;SDS011;47927;42.646;23.096;2023-02-13T00:10:12;24.10;;;11.23;;
61962;SDS011;47927;42.646;23.096;2023-02-13T00:12:38;23.88;;;11.23;;
61962;SDS011;47927;42.646;23.096;2023-02-13T00:15:03;32.58;;;16.42;;
61962;SDS011;47927;42.646;23.096;2023-02-13T00:17:30;27.25;;;12.60;;
61962;SDS011;47927;42.646;23.096;2023-02-13T00:19:56;26.33;;;13.27;;
61962;SDS011;47927;42.646;23.096;2023-02-13T00:22:21;26.00;;;13.00;;
61962;SDS011;47927;42.646;23.096;2023-02-13T00:24:48;38.33;;;14.27;;
61962;SDS011;47927;42.646;23.096;2023-02-13T00:27:13;45.53;;;14.85;;
61962;SDS011;47927;42.646;23.096;2023-02-13T00:29:39;30.83;;;13.20;;
61962;SDS011;47927;42.646;23.096;2023-02-13T00:32:04;37.63;;;17.42;;
61962;SDS011;47927;42.646;23.096;2023-02-13T00:34:31;52.97;;;14.73;;
61962;SDS011;47927;42.646;23.096;2023-02-13T00:36:57;35.55;;;15.85;;
61962;SDS011;47927;42.646;23.096;2023-02-13T00:39:22;28.98;;;12.38;;
61962;SDS011;47927;42.646;23.096;2023-02-13T00:41:48;39.17;;;13.50;;
61962;SDS011;47927;42.646;23.096;2023-02-13T00:44:13;32.83;;;12.50;;
61962;SDS011;47927;42.646;23.096;2023-02-13T00:46:39;43.80;;;13.77;;
61962;SDS011;47927;42.646;23.096;2023-02-13T00:49:04;43.00;;;16.58;;
61962;SDS011;47927;42.646;23.096;2023-02-13T00:51:32;25.73;;;13.05;;
61962;SDS011;47927;42.646;23.096;2023-02-13T00:53:59;29.58;;;14.63;;
61962;SDS011;47927;42.646;23.096;2023-02-13T00:56:25;35.30;;;19.45;;
61962;SDS011;47927;42.646;23.096;2023-02-13T00:58:51;36.85;;;15.43;;
61962;SDS011;47927;42.646;23.096;2023-02-13T01:01:17;27.50;;;14.23;;
61962;SDS011;47927;42.646;23.096;2023-02-13T01:03:42;31.10;;;15.55;;
61962;SDS011;47927;42.646;23.096;2023-02-13T01:06:08;35.17;;;16.35;;
61962;SDS011;47927;42.646;23.096;2023-02-13T01:08:33;38.38;;;17.48;;
61962;SDS011;47927;42.646;23.096;2023-02-13T01:10:59;40.92;;;16.75;;
61962;SDS011;47927;42.646;23.096;2023-02-13T01:13:25;29.05;;;14.93;;
61962;SDS011;47927;42.646;23.096;2023-02-13T01:15:52;30.70;;;15.15;;
61962;SDS011;47927;42.646;23.096;2023-02-13T01:18:18;35.95;;;14.50;;
61962;SDS011;47927;42.646;23.096;2023-02-13T01:20:44;41.08;;;13.43;;
61962;SDS011;47927;42.646;23.096;2023-02-13T01:23:19;34.40;;;15.13;;
61962;SDS011;47927;42.646;23.096;2023-02-13T01:25:45;31.63;;;14.40;;
61962;SDS011;47927;42.646;23.096;2023-02-13T01:28:10;25.52;;;12.23;;
61962;SDS011;47927;42.646;23.096;2023-02-13T01:30:36;27.05;;;11.90;;
61962;SDS011;47927;42.646;23.096;2023-02-13T01:33:01;24.98;;;12.15;;
61962;SDS011;47927;42.646;23.096;2023-02-13T01:35:27;27.48;;;12.18;;
61962;SDS011;47927;42.646;23.096;2023-02-13T01:37:52;26.83;;;10.35;;
61962;SDS011;47927;42.646;23.096;2023-02-13T01:40:18;19.48;;;8.95;;
61962;SDS011;47927;42.646;23.096;2023-02-13T01:42:43;20.23;;;11.27;;
61962;SDS011;47927;42.646;23.096;2023-02-13T01:47:59;22.98;;;11.35;;
61962;SDS011;47927;42.646;23.096;2023-02-13T01:55:52;13.98;;;8.90;;
61962;SDS011;47927;42.646;23.096;2023-02-13T01:58:25;16.42;;;7.22;;
61962;SDS011;47927;42.646;23.096;2023-02-13T02:00:56;17.35;;;8.63;;
61962;SDS011;47927;42.646;23.096;2023-02-13T02:03:29;17.30;;;9.60;;
61962;SDS011;47927;42.646;23.096;2023-02-13T02:06:10;19.50;;;10.05;;
61962;SDS011;47927;42.646;23.096;2023-02-13T02:08:40;17.58;;;9.35;;
61962;SDS011;47927;42.646;23.096;2023-02-13T02:11:12;18.73;;;10.15;;
61962;SDS011;47927;42.646;23.096;2023-02-13T02:13:43;24.05;;;10.73;;
61962;SDS011;47927;42.646;23.096;2023-02-13T02:16:10;28.23;;;12.35;;
61962;SDS011;47927;42.646;23.096;2023-02-13T02:18:36;29.65;;;12.93;;
61962;SDS011;47927;42.646;23.096;2023-02-13T06:03:44;25.23;;;13.25;;
61962;SDS011;47927;42.646;23.096;2023-02-13T06:06:11;30.70;;;13.73;;
61962;SDS011;47927;42.646;23.096;2023-02-13T06:08:37;27.33;;;14.00;;
61962;SDS011;47927;42.646;23.096;2023-02-13T06:11:03;28.70;;;13.20;;
61962;SDS011;47927;42.646;23.096;2023-02-13T06:13:30;31.65;;;14.35;;
61962;SDS011;47927;42.646;23.096;2023-02-13T06:15:56;37.42;;;14.13;;
61962;SDS011;47927;42.646;23.096;2023-02-13T07:07:14;31.60;;;13.40;;
61962;SDS011;47927;42.646;23.096;2023-02-13T07:09:40;31.25;;;12.68;;
61962;SDS011;47927;42.646;23.096;2023-02-13T07:12:07;30.00;;;13.98;;
61962;SDS011;47927;42.646;23.096;2023-02-13T07:14:33;33.33;;;14.43;;
61962;SDS011;47927;42.646;23.096;2023-02-13T07:16:59;26.50;;;13.68;;
61962;SDS011;47927;42.646;23.096;2023-02-13T07:19:25;28.50;;;13.77;;
61962;SDS011;47927;42.646;23.096;2023-02-13T07:21:52;29.40;;;13.85;;
61962;SDS011;47927;42.646;23.096;2023-02-13T07:24:19;31.60;;;15.40;;
61962;SDS011;47927;42.646;23.096;2023-02-13T07:26:45;27.60;;;13.82;;
61962;SDS011;47927;42.646;23.096;2023-02-13T07:29:11;30.95;;;14.95;;
61962;SDS011;47927;42.646;23.096;2023-02-13T07:31:36;29.80;;;15.93;;
61962;SDS011;47927;42.646;23.096;2023-02-13T07:34:03;29.73;;;15.55;;
61962;SDS011;47927;42.646;23.096;2023-02-13T07:36:28;32.53;;;16.80;;
61962;SDS011;47927;42.646;23.096;2023-02-13T07:38:54;31.08;;;16.73;;
61962;SDS011;47927;42.646;23.096;2023-02-13T07:41:19;34.72;;;16.88;;
61962;SDS011;47927;42.646;23.096;2023-02-13T07:43:45;25.02;;;12.75;;
61962;SDS011;47927;42.646;23.096;2023-02-13T07:46:10;30.13;;;14.65;;
61962;SDS011;47927;42.646;23.096;2023-02-13T07:48:36;36.13;;;16.42;;
61962;SDS011;47927;42.646;23.096;2023-02-13T07:51:02;29.50;;;14.93;;
61962;SDS011;47927;42.646;23.096;2023-02-13T07:53:29;32.53;;;16.23;;
61962;SDS011;47927;42.646;23.096;2023-02-13T07:55:55;29.33;;;15.23;;
61962;SDS011;47927;42.646;23.096;2023-02-13T07:58:21;32.20;;;13.80;;
61962;SDS011;47927;42.646;23.096;2023-02-13T08:00:46;30.65;;;15.13;;
61962;SDS011;47927;42.646;23.096;2023-02-13T08:03:12;30.17;;;16.10;;
61962;SDS011;47927;42.646;23.096;2023-02-13T08:05:37;32.85;;;14.90;;
61962;SDS011;47927;42.646;23.096;2023-02-13T08:08:04;35.67;;;15.40;;
61962;SDS011;47927;42.646;23.096;2023-02-13T08:10:31;29.25;;;14.80;;
61962;SDS011;47927;42.646;23.096;2023-02-13T08:13:15;24.40;;;13.18;;
61962;SDS011;47927;42.646;23.096;2023-02-13T08:15:41;27.30;;;13.55;;
61962;SDS011;47927;42.646;23.096;2023-02-13T08:18:08;25.55;;;13.57;;
61962;SDS011;47927;42.646;23.096;2023-02-13T08:20:35;32.67;;;14.32;;
61962;SDS011;47927;42.646;23.096;2023-02-13T08:23:01;26.50;;;13.27;;
61962;SDS011;47927;42.646;23.096;2023-02-13T08:25:28;26.95;;;13.90;;
61962;SDS011;47927;42.646;23.096;2023-02-13T08:27:54;31.80;;;15.60;;
61962;SDS011;47927;42.646;23.096;2023-02-13T08:30:20;37.17;;;16.38;;
61962;SDS011;47927;42.646;23.096;2023-02-13T08:32:45;26.90;;;14.02;;
61962;SDS011;47927;42.646;23.096;2023-02-13T08:35:11;27.33;;;14.32;;
61962;SDS011;47927;42.646;23.096;2023-02-13T09:07:54;25.25;;;12.70;;
61962;SDS011;47927;42.646;23.096;2023-02-13T09:10:20;28.92;;;14.02;;
61962;SDS011;47927;42.646;23.096;2023-02-13T09:12:52;28.10;;;14.88;;
61962;SDS011;47927;42.646;23.096;2023-02-13T09:15:18;32.28;;;15.65;;
61962;SDS011;47927;42.646;23.096;2023-02-13T09:17:43;30.95;;;14.77;;
61962;SDS011;47927;42.646;23.096;2023-02-13T09:20:09;38.55;;;17.40;;
61962;SDS011;47927;42.646;23.096;2023-02-13T09:22:38;29.75;;;14.48;;
61962;SDS011;47927;42.646;23.096;2023-02-13T09:25:05;27.75;;;14.50;;
61962;SDS011;47927;42.646;23.096;2023-02-13T09:27:32;26.80;;;14.35;;
61962;SDS011;47927;42.646;23.096;2023-02-13T09:29:58;28.08;;;14.80;;
61962;SDS011;47927;42.646;23.096;2023-02-13T09:32:24;30.05;;;13.93;;
61962;SDS011;47927;42.646;23.096;2023-02-13T09:34:50;34.08;;;14.20;;
61962;SDS011;47927;42.646;23.096;2023-02-13T09:37:16;27.67;;;13.68;;
61962;SDS011;47927;42.646;23.096;2023-02-13T09:39:41;29.80;;;15.00;;
61962;SDS011;47927;42.646;23.096;2023-02-13T09:42:14;28.63;;;15.15;;
61962;SDS011;47927;42.646;23.096;2023-02-13T09:45:02;30.65;;;15.13;;
61962;SDS011;47927;42.646;23.096;2023-02-13T09:47:36;30.00;;;16.17;;
61962;SDS011;47927;42.646;23.096;2023-02-13T09:50:06;28.10;;;14.93;;
61962;SDS011;47927;42.646;23.096;2023-02-13T09:52:36;33.35;;;16.00;;
61962;SDS011;47927;42.646;23.096;2023-02-13T09:55:09;25.15;;;14.23;;
61962;SDS011;47927;42.646;23.096;2023-02-13T09:57:50;29.38;;;14.60;;
61962;SDS011;47927;42.646;23.096;2023-02-13T10:00:25;28.65;;;15.80;;
61962;SDS011;47927;42.646;23.096;2023-02-13T10:08:26;28.40;;;16.35;;
61962;SDS011;47927;42.646;23.096;2023-02-13T10:16:16;28.20;;;16.85;;
61962;SDS011;47927;42.646;23.096;2023-02-13T10:18:48;27.40;;;15.77;;
